createdAt,value
2022-12-17T00:00:35.034Z,10.27
2022-12-17T00:03:20.404Z,10.60
2022-12-17T00:06:05.764Z,10.03
2022-12-17T00:08:51.441Z,16.37
2022-12-17T00:11:37.541Z,22.97
2022-12-17T00:14:23.295Z,22.33
2022-12-17T00:17:08.663Z,17.40
2022-12-17T00:19:56.308Z,7.97
2022-12-17T00:22:42.056Z,11.50
2022-12-17T00:25:27.788Z,12.13
2022-12-17T00:28:13.225Z,9.23
2022-12-17T00:30:58.509Z,15.70
2022-12-17T00:33:44.017Z,17.70
2022-12-17T00:36:29.188Z,11.60
2022-12-17T00:39:14.400Z,11.77
2022-12-17T00:41:59.759Z,12.57
2022-12-17T00:44:45.124Z,16.83
2022-12-17T00:47:30.449Z,13.57
2022-12-17T00:50:15.635Z,13.83
2022-12-17T00:53:00.934Z,19.20
2022-12-17T00:55:46.013Z,18.00
2022-12-17T00:58:31.438Z,15.60
2022-12-17T01:01:20.259Z,17.57
2022-12-17T01:04:05.670Z,10.43
2022-12-17T01:06:51.021Z,14.80
2022-12-17T01:09:36.856Z,12.17
2022-12-17T01:12:22.566Z,14.47
2022-12-17T01:15:07.874Z,13.80
2022-12-17T01:17:53.117Z,13.33
2022-12-17T01:20:42.197Z,13.17
2022-12-17T01:23:27.848Z,12.17
2022-12-17T01:26:15.049Z,12.87
2022-12-17T01:29:01.436Z,11.50
2022-12-17T01:31:47.418Z,11.67
2022-12-17T01:34:32.650Z,15.30
2022-12-17T01:37:17.775Z,12.70
2022-12-17T01:40:03.042Z,12.50
2022-12-17T01:43:05.926Z,14.67
2022-12-17T01:46:04.693Z,13.00
2022-12-17T01:48:59.903Z,13.37
2022-12-17T01:51:46.725Z,15.60
2022-12-17T01:54:33.201Z,13.93
2022-12-17T01:57:20.048Z,15.30
2022-12-17T02:00:21.506Z,14.70
2022-12-17T02:03:11.387Z,14.30
2022-12-17T02:06:35.887Z,12.77
2022-12-17T02:09:44.678Z,14.17
2022-12-17T02:12:44.321Z,13.07
2022-12-17T02:15:47.597Z,12.50
2022-12-17T02:18:41.036Z,9.60
2022-12-17T02:21:27.516Z,13.37
2022-12-17T02:24:47.866Z,11.77
2022-12-17T02:27:35.187Z,10.20
2022-12-17T02:30:26.044Z,15.53
2022-12-17T02:33:12.242Z,25.27
2022-12-17T02:36:25.627Z,36.10
2022-12-17T02:39:11.060Z,19.03
2022-12-17T02:42:11.674Z,18.10
2022-12-17T02:44:59.136Z,11.47
2022-12-17T02:47:44.699Z,9.77
2022-12-17T02:50:31.191Z,14.73
2022-12-17T02:53:20.755Z,11.23
2022-12-17T02:56:06.057Z,9.40
2022-12-17T02:58:51.201Z,9.53
2022-12-17T03:01:36.828Z,13.73
2022-12-17T03:04:22.712Z,8.90
2022-12-17T03:07:08.652Z,19.90
2022-12-17T03:09:53.839Z,10.77
2022-12-17T03:12:39.153Z,13.00
2022-12-17T03:15:25.480Z,13.20
2022-12-17T03:18:10.988Z,10.73
2022-12-17T03:20:56.298Z,11.83
2022-12-17T03:23:41.953Z,9.10
2022-12-17T03:26:27.343Z,7.47
2022-12-17T03:29:13.220Z,8.90
2022-12-17T03:31:58.574Z,9.00
2022-12-17T03:34:43.788Z,8.30
2022-12-17T03:37:29.372Z,7.57
2022-12-17T03:40:14.757Z,6.80
2022-12-17T03:43:01.046Z,6.27
2022-12-17T03:45:46.362Z,6.93
2022-12-17T03:48:33.878Z,6.50
2022-12-17T03:51:20.338Z,10.83
2022-12-17T03:54:06.795Z,6.83
2022-12-17T03:56:53.258Z,7.10
2022-12-17T03:59:39.033Z,8.60
2022-12-17T04:02:24.471Z,7.37
2022-12-17T04:05:13.821Z,7.00
2022-12-17T04:08:02.018Z,8.77
2022-12-17T04:10:47.249Z,9.10
2022-12-17T04:13:35.984Z,8.37
2022-12-17T04:16:26.178Z,9.67
2022-12-17T04:19:11.439Z,10.83
2022-12-17T04:21:56.667Z,8.70
2022-12-17T04:24:41.865Z,9.10
2022-12-17T04:27:27.028Z,8.00
2022-12-17T04:30:12.316Z,15.37
2022-12-17T04:32:57.487Z,7.77
2022-12-17T04:35:44.052Z,7.43
2022-12-17T04:38:29.447Z,6.93
2022-12-17T04:41:14.722Z,9.20
2022-12-17T04:44:03.165Z,9.53
2022-12-17T04:46:49.476Z,13.50
2022-12-17T04:49:35.290Z,9.43
2022-12-17T04:52:20.518Z,8.63
2022-12-17T04:55:05.748Z,10.13
2022-12-17T04:57:51.796Z,10.80
2022-12-17T05:00:39.411Z,9.60
2022-12-17T05:03:30.298Z,9.83
2022-12-17T05:06:16.182Z,11.50
2022-12-17T05:09:01.664Z,13.27
2022-12-17T05:11:46.841Z,9.53
2022-12-17T05:14:32.189Z,9.97
2022-12-17T05:17:17.424Z,9.33
2022-12-17T05:20:02.674Z,11.90
2022-12-17T05:22:48.361Z,15.43
2022-12-17T05:25:33.928Z,19.37
2022-12-17T05:28:19.295Z,21.20
2022-12-17T05:31:11.741Z,18.60
2022-12-17T05:33:57.653Z,20.63
2022-12-17T05:36:43.490Z,15.30
2022-12-17T05:39:29.953Z,19.07
2022-12-17T05:42:15.207Z,17.50
2022-12-17T05:45:00.377Z,21.00
2022-12-17T05:47:45.845Z,21.63
2022-12-17T05:50:31.102Z,21.17
2022-12-17T05:53:24.415Z,16.47
2022-12-17T05:56:11.120Z,22.90
2022-12-17T05:58:57.716Z,21.60
2022-12-17T06:01:43.179Z,24.30
2022-12-17T06:04:29.736Z,24.63
2022-12-17T06:07:15.072Z,47.70
2022-12-17T06:10:00.347Z,33.13
2022-12-17T06:12:46.174Z,28.00
2022-12-17T06:15:32.373Z,28.27
2022-12-17T06:18:17.827Z,43.63
2022-12-17T06:21:06.210Z,31.43
2022-12-17T06:23:51.261Z,35.87
2022-12-17T06:26:37.465Z,36.83
2022-12-17T06:29:22.751Z,24.70
2022-12-17T06:32:08.318Z,60.77
2022-12-17T06:34:53.703Z,47.23
2022-12-17T06:37:39.159Z,40.17
2022-12-17T06:40:25.420Z,33.93
2022-12-17T06:43:12.786Z,39.63
2022-12-17T06:45:58.442Z,40.13
2022-12-17T06:48:43.957Z,51.47
2022-12-17T06:51:29.622Z,42.87
2022-12-17T06:54:14.907Z,49.40
2022-12-17T06:57:00.219Z,28.97
2022-12-17T06:59:45.457Z,30.47
2022-12-17T07:02:31.304Z,21.50
2022-12-17T07:05:16.666Z,24.97
2022-12-17T07:08:01.872Z,25.97
2022-12-17T07:10:47.394Z,52.50
2022-12-17T07:13:32.814Z,32.90
2022-12-17T07:16:18.291Z,35.07
2022-12-17T07:19:04.046Z,28.83
2022-12-17T07:21:49.402Z,30.97
2022-12-17T07:24:35.126Z,28.50
2022-12-17T07:27:20.349Z,27.83
2022-12-17T07:30:06.022Z,22.33
2022-12-17T07:32:51.173Z,37.37
2022-12-17T07:35:37.888Z,47.37
2022-12-17T07:38:24.259Z,33.30
2022-12-17T07:41:09.460Z,34.77
2022-12-17T07:43:55.164Z,32.43
2022-12-17T07:46:40.615Z,29.67
2022-12-17T07:49:26.466Z,33.43
2022-12-17T07:52:12.888Z,28.13
2022-12-17T07:54:58.397Z,30.20
2022-12-17T07:57:44.460Z,34.20
2022-12-17T08:00:31.227Z,34.07
2022-12-17T08:03:20.084Z,27.60
2022-12-17T08:06:05.561Z,32.73
2022-12-17T08:08:50.947Z,40.97
2022-12-17T08:11:36.259Z,27.27
2022-12-17T08:14:21.849Z,26.00
2022-12-17T08:17:07.123Z,38.87
2022-12-17T08:19:52.486Z,54.37
2022-12-17T08:22:37.826Z,35.17
2022-12-17T08:25:23.801Z,40.80
2022-12-17T08:28:49.133Z,25.13
2022-12-17T08:31:24.141Z,39.13
2022-12-17T08:34:09.565Z,43.67
2022-12-17T08:36:54.855Z,38.63
2022-12-17T08:39:40.487Z,33.97
2022-12-17T08:42:36.457Z,38.40
2022-12-17T08:45:22.558Z,33.37
2022-12-17T08:48:07.550Z,64.90
2022-12-17T08:50:52.834Z,37.47
2022-12-17T08:53:38.325Z,29.90
2022-12-17T08:56:24.809Z,32.20
2022-12-17T08:59:10.135Z,29.43
2022-12-17T09:01:55.373Z,30.67
2022-12-17T09:04:40.822Z,35.87
2022-12-17T09:07:28.260Z,34.50
2022-12-17T09:10:13.517Z,32.70
2022-12-17T09:13:04.245Z,29.30
2022-12-17T09:15:51.682Z,33.00
2022-12-17T09:18:39.610Z,30.30
2022-12-17T09:21:26.554Z,31.17
2022-12-17T09:24:11.844Z,33.63
2022-12-17T09:26:57.117Z,39.90
2022-12-17T09:29:42.481Z,36.73
2022-12-17T09:32:27.749Z,33.27
2022-12-17T09:35:13.093Z,29.90
2022-12-17T09:37:58.363Z,30.87
2022-12-17T09:40:44.077Z,28.70
2022-12-17T09:44:05.164Z,26.00
2022-12-17T09:47:07.245Z,24.30
2022-12-17T09:50:09.652Z,20.03
2022-12-17T09:52:59.865Z,21.23
2022-12-17T09:56:05.800Z,26.03
2022-12-17T09:58:55.803Z,21.23
2022-12-17T10:01:51.271Z,26.77
2022-12-17T10:04:52.446Z,26.17
2022-12-17T10:07:43.589Z,31.50
2022-12-17T10:10:50.162Z,25.73
2022-12-17T10:13:40.286Z,24.53
2022-12-17T10:16:50.994Z,21.60
2022-12-17T10:20:02.668Z,24.73
2022-12-17T10:22:58.566Z,21.50
2022-12-17T10:25:43.960Z,23.30
2022-12-17T10:28:41.263Z,25.60
2022-12-17T10:31:33.662Z,29.70
2022-12-17T10:34:18.875Z,29.40
2022-12-17T10:37:12.491Z,25.40
2022-12-17T10:40:00.382Z,30.70
2022-12-17T10:42:57.218Z,27.37
2022-12-17T10:45:54.260Z,31.97
2022-12-17T10:48:48.706Z,29.07
2022-12-17T10:51:39.101Z,29.30
2022-12-17T10:54:49.105Z,38.13
2022-12-17T10:57:55.730Z,33.63
2022-12-17T11:01:04.355Z,29.60
2022-12-17T11:04:08.925Z,33.00
2022-12-17T11:07:03.865Z,34.47
2022-12-17T11:10:12.642Z,33.50
2022-12-17T11:13:18.435Z,31.20
2022-12-17T11:16:16.490Z,33.17
2022-12-17T11:19:17.607Z,29.53
2022-12-17T11:22:18.765Z,34.27
2022-12-17T11:25:23.785Z,36.57
2022-12-17T11:28:35.829Z,36.87
2022-12-17T11:31:36.760Z,35.93
2022-12-17T11:34:39.586Z,35.30
2022-12-17T11:37:37.018Z,38.63
2022-12-17T11:40:53.314Z,41.17
2022-12-17T11:43:55.093Z,39.83
2022-12-17T11:46:49.413Z,42.20
2022-12-17T11:50:14.902Z,38.93
2022-12-17T11:53:38.716Z,37.50
2022-12-17T11:56:56.964Z,36.83
2022-12-17T11:59:55.152Z,38.50
2022-12-17T12:03:29.037Z,36.63
2022-12-17T12:06:18.701Z,40.37
2022-12-17T12:09:37.997Z,35.57
2022-12-17T12:12:53.966Z,41.90
2022-12-17T12:15:54.262Z,42.33
2022-12-17T12:18:55.104Z,35.33
2022-12-17T12:22:07.535Z,37.90
2022-12-17T12:25:27.013Z,44.13
2022-12-17T12:28:36.856Z,37.93
2022-12-17T12:31:42.328Z,36.03
2022-12-17T12:34:36.082Z,39.30
2022-12-17T12:37:23.768Z,40.03
2022-12-17T12:40:32.301Z,41.00
2022-12-17T12:43:33.055Z,41.03
2022-12-17T12:46:31.909Z,38.23
2022-12-17T12:49:41.902Z,52.23
2022-12-17T12:52:31.497Z,44.60
2022-12-17T12:55:17.828Z,38.40
2022-12-17T12:58:43.100Z,37.43
2022-12-17T13:01:29.346Z,38.80
2022-12-17T13:04:17.583Z,39.07
2022-12-17T13:06:50.715Z,35.30
2022-12-17T13:09:23.385Z,36.40
2022-12-17T13:12:02.266Z,33.43
2022-12-17T13:14:46.128Z,35.30
2022-12-17T13:17:16.314Z,31.10
2022-12-17T13:20:03.471Z,33.37
2022-12-17T13:22:33.624Z,36.10
2022-12-17T13:25:19.118Z,34.00
2022-12-17T13:27:46.742Z,33.87
2022-12-17T13:30:38.212Z,34.60
2022-12-17T13:33:08.209Z,32.03
2022-12-17T13:35:49.685Z,40.47
2022-12-17T13:38:34.104Z,33.87
2022-12-17T13:41:08.139Z,32.63
2022-12-17T13:44:21.445Z,30.73
2022-12-17T13:46:50.730Z,33.00
2022-12-17T13:49:27.012Z,30.40
2022-12-17T13:52:17.675Z,31.37
2022-12-17T13:54:45.114Z,33.07
2022-12-17T13:57:22.930Z,36.87
2022-12-17T13:59:58.911Z,31.60
2022-12-17T14:02:33.674Z,27.27
2022-12-17T14:05:07.936Z,40.53
2022-12-17T14:07:39.187Z,39.37
2022-12-17T14:10:18.318Z,38.20
2022-12-17T14:12:45.457Z,39.90
2022-12-17T14:15:26.082Z,38.30
2022-12-17T14:17:55.026Z,42.13
2022-12-17T14:20:30.149Z,39.00
2022-12-17T14:23:11.454Z,43.43
2022-12-17T14:25:40.553Z,38.20
2022-12-17T14:28:31.669Z,42.40
2022-12-17T14:31:27.041Z,41.63
2022-12-17T14:34:11.850Z,54.43
2022-12-17T14:36:43.944Z,38.70
2022-12-17T14:39:23.339Z,44.70
2022-12-17T14:42:09.738Z,45.60
2022-12-17T14:44:50.435Z,43.23
2022-12-17T14:47:22.192Z,44.03
2022-12-17T14:50:06.542Z,40.97
2022-12-17T14:53:01.507Z,43.30
2022-12-17T14:55:38.290Z,43.07
2022-12-17T14:58:14.121Z,40.47
2022-12-17T15:00:51.735Z,42.20
2022-12-17T15:03:33.152Z,45.13
2022-12-17T15:06:15.414Z,36.50
2022-12-17T15:08:49.131Z,39.23
2022-12-17T15:11:20.306Z,47.63
2022-12-17T15:13:51.407Z,40.90
2022-12-17T15:16:21.484Z,44.67
2022-12-17T15:18:48.396Z,52.63
2022-12-17T15:21:17.177Z,48.00
2022-12-17T15:23:45.831Z,50.20
2022-12-17T15:26:15.110Z,44.23
2022-12-17T15:28:43.601Z,48.73
2022-12-17T15:31:13.578Z,51.60
2022-12-17T15:33:41.778Z,55.47
2022-12-17T15:36:12.839Z,63.47
2022-12-17T15:38:40.256Z,54.93
2022-12-17T15:41:25.898Z,51.80
2022-12-17T15:43:53.107Z,59.47
2022-12-17T15:46:20.064Z,53.57
2022-12-17T15:48:50.525Z,51.33
2022-12-17T15:51:21.161Z,49.30
2022-12-17T15:53:48.674Z,48.63
2022-12-17T15:56:24.911Z,55.63
2022-12-17T15:58:54.219Z,54.30
2022-12-17T16:01:21.317Z,48.60
2022-12-17T16:03:48.477Z,57.10
2022-12-17T16:06:15.510Z,46.00
2022-12-17T16:08:42.396Z,50.20
2022-12-17T16:11:11.532Z,55.70
2022-12-17T16:13:39.138Z,62.00
2022-12-17T16:16:07.806Z,56.70
2022-12-17T16:18:38.522Z,54.47
2022-12-17T16:21:09.076Z,57.20
2022-12-17T16:23:36.679Z,56.50
2022-12-17T16:26:07.225Z,51.47
2022-12-17T16:28:36.133Z,51.70
2022-12-17T16:31:11.442Z,51.10
2022-12-17T16:33:48.207Z,52.67
2022-12-17T16:36:19.290Z,48.73
2022-12-17T16:38:50.114Z,54.33
2022-12-17T16:41:18.349Z,56.50
2022-12-17T16:43:46.405Z,56.77
2022-12-17T16:46:32.249Z,59.87
2022-12-17T16:49:05.924Z,53.83
2022-12-17T16:51:33.220Z,67.70
2022-12-17T16:54:04.778Z,55.93
2022-12-17T16:56:35.160Z,52.13
2022-12-17T16:59:08.211Z,69.50
2022-12-17T17:01:37.284Z,52.00
2022-12-17T17:04:06.703Z,54.27
2022-12-17T17:06:38.459Z,59.00
2022-12-17T17:09:05.906Z,48.80
2022-12-17T17:11:32.994Z,65.50
2022-12-17T17:14:00.142Z,51.80
2022-12-17T17:16:27.536Z,64.37
2022-12-17T17:18:54.855Z,64.73
2022-12-17T17:21:34.275Z,63.10
2022-12-17T17:24:08.428Z,65.63
2022-12-17T17:26:35.628Z,55.53
2022-12-17T17:29:03.906Z,67.93
2022-12-17T17:34:17.897Z,49.70
2022-12-17T17:36:45.027Z,75.57
2022-12-17T17:39:11.978Z,73.00
2022-12-17T17:41:39.045Z,66.17
2022-12-17T17:44:11.658Z,64.10
2022-12-17T17:46:39.350Z,74.47
2022-12-17T17:49:08.245Z,67.83
2022-12-17T17:52:08.455Z,81.60
2022-12-17T17:54:27.974Z,69.43
2022-12-17T17:56:54.886Z,76.27
2022-12-17T17:59:27.861Z,72.60
2022-12-17T18:02:00.447Z,71.83
2022-12-17T18:04:28.728Z,71.70
2022-12-17T18:07:24.322Z,61.60
2022-12-17T18:09:42.859Z,71.60
2022-12-17T18:12:37.815Z,67.60
2022-12-17T18:15:16.452Z,71.83
2022-12-17T18:17:51.384Z,66.83
2022-12-17T18:20:18.925Z,65.50
2022-12-17T18:22:46.802Z,66.03
2022-12-17T18:25:17.686Z,64.47
2022-12-17T18:27:45.008Z,72.37
2022-12-17T18:30:14.325Z,64.63
2022-12-17T18:32:41.277Z,64.67
2022-12-17T18:35:08.914Z,67.57
2022-12-17T18:37:36.359Z,63.90
2022-12-17T18:40:04.942Z,70.67
2022-12-17T18:42:50.819Z,58.63
2022-12-17T18:45:17.843Z,58.63
2022-12-17T18:47:45.095Z,68.30
2022-12-17T18:50:13.272Z,70.40
2022-12-17T18:52:40.174Z,77.57
2022-12-17T18:55:08.618Z,53.27
2022-12-17T18:57:35.532Z,77.87
2022-12-17T19:00:02.698Z,64.87
2022-12-17T19:02:29.681Z,60.33
2022-12-17T19:04:56.667Z,66.97
2022-12-17T19:07:23.534Z,56.77
2022-12-17T19:09:50.498Z,64.03
2022-12-17T19:12:17.373Z,64.90
2022-12-17T19:14:44.438Z,57.77
2022-12-17T19:17:12.447Z,57.37
2022-12-17T19:19:39.466Z,61.63
2022-12-17T19:22:06.806Z,65.27
2022-12-17T19:24:33.826Z,59.97
2022-12-17T19:27:00.742Z,55.30
2022-12-17T19:29:27.648Z,65.87
2022-12-17T19:31:54.597Z,64.40
2022-12-17T19:34:21.812Z,57.00
2022-12-17T19:36:48.801Z,63.70
2022-12-17T19:39:19.152Z,52.73
2022-12-17T19:41:46.424Z,70.80
2022-12-17T19:44:17.282Z,67.77
2022-12-17T19:46:44.782Z,63.43
2022-12-17T19:49:14.217Z,63.80
2022-12-17T19:51:44.078Z,63.27
2022-12-17T19:54:13.926Z,59.17
2022-12-17T19:56:41.984Z,60.13
2022-12-17T19:59:10.805Z,55.00
2022-12-17T20:01:42.967Z,59.07
2022-12-17T20:04:13.404Z,66.00
2022-12-17T20:06:40.273Z,67.03
2022-12-17T20:09:07.597Z,57.47
2022-12-17T20:11:35.271Z,59.90
2022-12-17T20:14:11.004Z,65.60
2022-12-17T20:16:48.171Z,63.03
2022-12-17T20:19:20.423Z,45.97
2022-12-17T20:21:47.906Z,68.03
2022-12-17T20:24:16.534Z,61.80
2022-12-17T20:26:44.770Z,75.33
2022-12-17T20:29:12.613Z,65.10
2022-12-17T20:31:39.864Z,54.60
2022-12-17T20:34:09.671Z,59.37
2022-12-17T20:36:36.810Z,66.23
2022-12-17T20:39:04.454Z,69.17
2022-12-17T20:41:32.606Z,61.03
2022-12-17T20:44:05.080Z,57.23
2022-12-17T20:46:32.450Z,52.80
2022-12-17T20:49:01.073Z,48.47
2022-12-17T20:51:29.355Z,61.40
2022-12-17T20:53:58.962Z,56.90
2022-12-17T20:56:29.466Z,61.10
2022-12-17T20:59:00.249Z,63.73
2022-12-17T21:01:29.901Z,63.40
2022-12-17T21:03:57.945Z,59.97
2022-12-17T21:06:32.500Z,43.60
2022-12-17T21:08:59.808Z,59.37
2022-12-17T21:11:29.999Z,52.77
2022-12-17T21:13:57.386Z,51.17
2022-12-17T21:16:29.611Z,49.37
2022-12-17T21:18:58.723Z,51.60
2022-12-17T21:21:29.346Z,47.07
2022-12-17T21:23:57.572Z,47.83
2022-12-17T21:26:32.012Z,54.50
2022-12-17T21:29:00.374Z,48.30
2022-12-17T21:31:35.512Z,54.77
2022-12-17T21:34:04.950Z,44.40
2022-12-17T21:36:34.553Z,41.13
2022-12-17T21:39:02.895Z,43.90
2022-12-17T21:41:39.340Z,52.50
2022-12-17T21:44:15.365Z,45.17
2022-12-17T21:46:43.642Z,42.07
2022-12-17T21:49:13.790Z,44.63
2022-12-17T21:51:40.904Z,43.03
2022-12-17T21:54:08.598Z,47.70
2022-12-17T21:56:36.439Z,49.23
2022-12-17T21:59:03.623Z,45.90
2022-12-17T22:01:33.879Z,43.17
2022-12-17T22:04:04.294Z,46.03
2022-12-17T22:06:36.047Z,43.73
2022-12-17T22:09:15.169Z,43.87
2022-12-17T22:12:15.162Z,49.17
2022-12-17T22:14:42.128Z,47.53
2022-12-17T22:17:09.036Z,44.93
2022-12-17T22:19:36.031Z,46.30
2022-12-17T22:22:03.043Z,39.77
2022-12-17T22:24:36.206Z,46.40
2022-12-17T22:27:04.049Z,37.60
2022-12-17T22:29:52.168Z,48.67
2022-12-17T22:32:37.338Z,43.47
2022-12-17T22:36:24.402Z,38.53
2022-12-17T22:40:21.353Z,39.87
2022-12-17T22:44:30.407Z,45.50
2022-12-17T22:44:31.830Z,49.17
2022-12-17T22:46:17.338Z,45.77
2022-12-17T22:48:44.587Z,42.10
2022-12-17T22:51:15.152Z,45.67
2022-12-17T22:53:44.998Z,35.87
2022-12-17T22:56:22.525Z,38.37
2022-12-17T22:58:59.394Z,33.10
2022-12-17T23:01:26.947Z,42.47
2022-12-17T23:03:59.901Z,43.30
2022-12-17T23:06:27.749Z,42.47
2022-12-17T23:08:55.877Z,45.80
2022-12-17T23:11:26.026Z,49.43
2022-12-17T23:13:54.726Z,45.97
2022-12-17T23:16:22.120Z,44.87
2022-12-17T23:18:51.309Z,44.23
2022-12-17T23:21:22.483Z,42.63
2022-12-17T23:23:50.480Z,45.80
2022-12-17T23:26:27.302Z,53.63
2022-12-17T23:28:59.954Z,52.97
2022-12-17T23:31:32.138Z,44.87
2022-12-17T23:33:59.224Z,46.60
2022-12-17T23:36:26.471Z,42.67
2022-12-17T23:38:56.135Z,40.43
2022-12-17T23:41:29.674Z,41.67
2022-12-17T23:43:57.620Z,43.13
2022-12-17T23:46:26.899Z,43.97
2022-12-17T23:48:55.167Z,42.40
2022-12-17T23:51:24.160Z,40.87
2022-12-17T23:53:51.196Z,45.40
2022-12-17T23:56:25.170Z,39.93
2022-12-17T23:58:58.697Z,40.70
